Lake City, Pennsylvania
Current Conditions -  °F | °C
As of 1:51 AM on Saturday 20 Dec 2014 (Local Time) from KERI Reporting Station
Overcast Overcast  
Wind Chill: 21°   Ceiling: 2400
Heat Index: 29°   Visibility: 10mi
Dew Point: 19°   Wind: 8mph
Humidity: 67%   Direction: 330°NNW
Pressure: 30.24"   Gusts: NA
Location:  42.01°N, 80.35°W
Report Text: KERI 200651Z 33007KT 10SM OVC024 M02/M07 A3024 RMK AO2 SLP250 T10171072
Loading
Personal Weather Stations






























Interactive Weather Map New forecast layout! Learn more

10-Day Weather Forecast

Advertisements
Track Severe Weather on mobile